Time;durP1;ratioP1;P1;durP2;ratioP2;P2;SDS_P1;SDS_P2;PMS_P1;PMS_P2;Temp;Humidity;BMP_temperature;BMP_pressure;BME280_temperature;BME280_humidity;BME280_pressure;Samples;Min_cycle;Max_cycle;Signal;HPM_P1;HPM_P2
2023/08/29 00:02:04;;;;;;;1.90;1.10;;;;;;;;;;4917073;29;20460;-70
2023/08/29 00:04:31;;;;;;;2.00;1.20;;;;;;;;;;4917233;29;20449;-71
2023/08/29 00:06:58;;;;;;;1.83;0.97;;;;;;;;;;4916622;29;20475;-70
2023/08/29 00:09:25;;;;;;;2.17;1.10;;;;;;;;;;4915993;29;20498;-71
2023/08/29 00:11:52;;;;;;;2.30;1.10;;;;;;;;;;4917188;29;20452;-71
2023/08/29 00:14:19;;;;;;;2.17;1.13;;;;;;;;;;4916155;29;20453;-71
2023/08/29 00:16:48;;;;;;;1.80;1.00;;;;;;;;;;4916736;29;20461;-71
2023/08/29 00:19:15;;;;;;;2.57;1.37;;;;;;;;;;4916974;29;20471;-70
2023/08/29 00:21:42;;;;;;;2.00;1.27;;;;;;;;;;4917900;29;20830;-71
2023/08/29 00:24:10;;;;;;;2.20;1.27;;;;;;;;;;4917300;29;20448;-70
2023/08/29 00:26:38;;;;;;;1.90;1.00;;;;;;;;;;4917464;29;20540;-69
2023/08/29 00:29:07;;;;;;;3.20;1.57;;;;;;;;;;4908287;29;20492;-70
2023/08/29 00:31:34;;;;;;;1.77;1.03;;;;;;;;;;4916790;29;20491;-71
2023/08/29 00:34:03;;;;;;;2.53;1.50;;;;;;;;;;4916346;29;20460;-70
2023/08/29 00:36:30;;;;;;;2.60;1.13;;;;;;;;;;4915123;29;20887;-71
2023/08/29 00:38:57;;;;;;;1.90;1.17;;;;;;;;;;4916309;29;20995;-71
2023/08/29 00:41:25;;;;;;;3.47;1.40;;;;;;;;;;4903429;29;20467;-71
2023/08/29 00:43:52;;;;;;;2.63;1.10;;;;;;;;;;4916091;29;20449;-70
2023/08/29 00:46:20;;;;;;;3.73;1.70;;;;;;;;;;4915816;29;20447;-71
2023/08/29 00:48:47;;;;;;;2.30;1.20;;;;;;;;;;4915909;29;20464;-71
2023/08/29 00:51:16;;;;;;;2.47;1.70;;;;;;;;;;4916377;29;20456;-70
2023/08/29 00:53:43;;;;;;;2.20;1.40;;;;;;;;;;4915749;29;20527;-70
2023/08/29 00:56:12;;;;;;;2.33;1.53;;;;;;;;;;4914696;29;20614;-71
2023/08/29 00:58:39;;;;;;;2.77;1.50;;;;;;;;;;4915417;29;20472;-71
2023/08/29 01:01:06;;;;;;;2.57;1.33;;;;;;;;;;4916010;29;20441;-71
2023/08/29 01:03:33;;;;;;;3.60;1.90;;;;;;;;;;4915396;29;20441;-71
2023/08/29 01:06:01;;;;;;;2.77;1.90;;;;;;;;;;4914334;29;20517;-72
2023/08/29 01:08:30;;;;;;;3.20;1.40;;;;;;;;;;4916080;29;20480;-71
2023/08/29 01:11:03;;;;;;;3.13;1.73;;;;;;;;;;4915753;29;20511;-71
2023/08/29 01:13:31;;;;;;;3.10;1.67;;;;;;;;;;4914786;29;20457;-71
2023/08/29 01:16:00;;;;;;;2.83;1.57;;;;;;;;;;4903051;29;20496;-71
2023/08/29 01:18:30;;;;;;;2.20;1.30;;;;;;;;;;4914721;29;20511;-71
2023/08/29 01:21:00;;;;;;;4.30;1.90;;;;;;;;;;4915656;29;20453;-71
2023/08/29 01:23:36;;;;;;;3.03;1.43;;;;;;;;;;4914844;29;20456;-71
2023/08/29 01:26:10;;;;;;;2.83;1.47;;;;;;;;;;4906383;29;20471;-71
2023/08/29 01:28:38;;;;;;;2.47;1.53;;;;;;;;;;4915528;29;20477;-71
2023/08/29 01:31:06;;;;;;;2.10;1.37;;;;;;;;;;4914115;29;20569;-71
2023/08/29 01:33:34;;;;;;;2.30;1.27;;;;;;;;;;4915085;29;20433;-70
2023/08/29 01:36:01;;;;;;;2.37;1.37;;;;;;;;;;4913737;29;20456;-72
2023/08/29 01:38:28;;;;;;;2.20;1.53;;;;;;;;;;4913939;29;20452;-70
2023/08/29 01:40:55;;;;;;;2.83;1.30;;;;;;;;;;4911259;29;20471;-70
2023/08/29 01:43:24;;;;;;;2.00;1.20;;;;;;;;;;4914857;29;20455;-71
2023/08/29 01:45:51;;;;;;;1.80;1.10;;;;;;;;;;4906588;29;21037;-71
2023/08/29 01:48:18;;;;;;;2.13;1.33;;;;;;;;;;4908607;29;20458;-72
2023/08/29 01:50:47;;;;;;;3.50;1.50;;;;;;;;;;4910714;29;20814;-71
2023/08/29 01:53:14;;;;;;;2.67;1.40;;;;;;;;;;4915285;29;20900;-70
2023/08/29 01:55:42;;;;;;;2.13;0.83;;;;;;;;;;4911045;29;20952;-70
2023/08/29 01:58:12;;;;;;;2.47;1.40;;;;;;;;;;4914756;29;21014;-70
2023/08/29 02:00:41;;;;;;;2.37;1.50;;;;;;;;;;4912495;29;20445;-69
2023/08/29 02:03:08;;;;;;;2.00;1.30;;;;;;;;;;4914672;29;20455;-71
2023/08/29 02:05:36;;;;;;;3.50;1.50;;;;;;;;;;4904953;29;20810;-70
2023/08/29 02:08:03;;;;;;;2.70;1.93;;;;;;;;;;4914886;29;20452;-70
2023/08/29 02:10:31;;;;;;;3.40;1.60;;;;;;;;;;4908893;29;20493;-70
2023/08/29 02:12:58;;;;;;;2.20;1.30;;;;;;;;;;4903731;29;20962;-70
2023/08/29 02:15:25;;;;;;;2.80;1.20;;;;;;;;;;4906794;29;20453;-71
2023/08/29 02:17:55;;;;;;;2.53;1.40;;;;;;;;;;4920764;29;20460;-70
2023/08/29 02:20:22;;;;;;;2.47;1.40;;;;;;;;;;4914583;29;20464;-70
2023/08/29 02:22:50;;;;;;;2.27;1.30;;;;;;;;;;4920456;29;20451;-70
2023/08/29 02:25:18;;;;;;;2.27;1.30;;;;;;;;;;4916093;29;20459;-71
2023/08/29 02:27:45;;;;;;;2.00;1.30;;;;;;;;;;4921345;29;21116;-71
2023/08/29 02:30:15;;;;;;;2.30;1.10;;;;;;;;;;4914364;29;20493;-71
2023/08/29 02:32:42;;;;;;;2.13;1.33;;;;;;;;;;4911849;29;20461;-70
2023/08/29 02:35:11;;;;;;;1.73;1.17;;;;;;;;;;4920706;29;20828;-71
2023/08/29 02:37:39;;;;;;;2.33;1.37;;;;;;;;;;4920679;29;20491;-70
2023/08/29 02:40:08;;;;;;;2.00;1.20;;;;;;;;;;4914484;29;20488;-69
2023/08/29 02:42:35;;;;;;;2.50;1.30;;;;;;;;;;4919533;29;20531;-70
2023/08/29 02:45:03;;;;;;;2.60;1.50;;;;;;;;;;4920670;29;20813;-71
2023/08/29 02:47:30;;;;;;;2.37;1.50;;;;;;;;;;4920992;29;20448;-71
2023/08/29 02:49:57;;;;;;;2.87;1.50;;;;;;;;;;4920189;29;20491;-70
2023/08/29 02:52:25;;;;;;;2.10;1.23;;;;;;;;;;4920799;29;20836;-70
2023/08/29 02:54:53;;;;;;;2.50;1.63;;;;;;;;;;4920989;29;20448;-71
2023/08/29 02:57:20;;;;;;;3.33;1.47;;;;;;;;;;4917318;29;20452;-71
2023/08/29 02:59:47;;;;;;;2.40;1.40;;;;;;;;;;4921175;29;20460;-71
2023/08/29 03:02:14;;;;;;;2.33;1.27;;;;;;;;;;4919964;29;20651;-69
2023/08/29 03:04:42;;;;;;;2.00;1.20;;;;;;;;;;4920694;29;20449;-70
2023/08/29 03:07:09;;;;;;;2.10;1.40;;;;;;;;;;4920120;29;20526;-70
2023/08/29 03:09:37;;;;;;;2.30;1.63;;;;;;;;;;4920634;29;20475;-70
2023/08/29 03:12:05;;;;;;;2.43;1.30;;;;;;;;;;4920965;29;20448;-70
2023/08/29 03:14:32;;;;;;;4.00;1.30;;;;;;;;;;4920345;29;20479;-71
2023/08/29 03:16:59;;;;;;;3.70;1.77;;;;;;;;;;4920767;29;20460;-71
2023/08/29 03:19:26;;;;;;;2.33;1.17;;;;;;;;;;4920358;29;20479;-70
2023/08/29 03:21:53;;;;;;;1.90;1.23;;;;;;;;;;4920292;29;20452;-70
2023/08/29 03:24:20;;;;;;;2.60;1.53;;;;;;;;;;4920184;29;20444;-71
2023/08/29 03:26:48;;;;;;;2.60;1.57;;;;;;;;;;4919690;29;20459;-70
2023/08/29 03:29:16;;;;;;;2.97;1.67;;;;;;;;;;4916539;29;20475;-70
2023/08/29 03:31:43;;;;;;;2.60;1.70;;;;;;;;;;4916851;29;20497;-70
2023/08/29 03:34:10;;;;;;;3.30;1.97;;;;;;;;;;4917127;29;20448;-70
2023/08/29 03:36:38;;;;;;;2.07;1.30;;;;;;;;;;4916862;29;20452;-69
2023/08/29 03:39:05;;;;;;;3.20;1.57;;;;;;;;;;4916407;29;20817;-70
2023/08/29 03:41:32;;;;;;;2.53;1.60;;;;;;;;;;4916786;29;20516;-70
2023/08/29 03:44:01;;;;;;;2.40;1.40;;;;;;;;;;4916948;29;20445;-71
2023/08/29 03:46:28;;;;;;;2.43;1.70;;;;;;;;;;4915759;29;20460;-71
2023/08/29 03:48:55;;;;;;;2.20;1.00;;;;;;;;;;4916489;29;20469;-71
2023/08/29 03:51:22;;;;;;;2.37;1.43;;;;;;;;;;4917359;29;20499;-71
2023/08/29 03:53:49;;;;;;;3.40;2.00;;;;;;;;;;4917137;29;20453;-71
2023/08/29 03:56:17;;;;;;;2.03;1.53;;;;;;;;;;4916555;29;20932;-71
2023/08/29 03:58:45;;;;;;;3.07;1.80;;;;;;;;;;4917010;29;20859;-70
2023/08/29 04:01:13;;;;;;;2.40;1.70;;;;;;;;;;4917438;29;20540;-70
2023/08/29 04:03:40;;;;;;;2.40;1.50;;;;;;;;;;4918326;29;20453;-71
2023/08/29 04:06:08;;;;;;;2.67;1.73;;;;;;;;;;4917348;29;20842;-71
2023/08/29 04:08:36;;;;;;;2.70;1.67;;;;;;;;;;4916549;29;20476;-71
2023/08/29 04:11:04;;;;;;;2.53;1.70;;;;;;;;;;4916849;29;20814;-71
2023/08/29 04:13:31;;;;;;;2.70;1.73;;;;;;;;;;4915369;29;20496;-71
2023/08/29 04:16:02;;;;;;;2.10;1.50;;;;;;;;;;4916305;29;20453;-70
2023/08/29 04:18:31;;;;;;;2.40;1.50;;;;;;;;;;4916125;29;20516;-71
2023/08/29 04:20:58;;;;;;;2.57;1.53;;;;;;;;;;4915807;29;20449;-71
2023/08/29 04:23:25;;;;;;;4.27;1.80;;;;;;;;;;4916519;29;20531;-70
2023/08/29 04:25:58;;;;;;;2.60;2.03;;;;;;;;;;4915938;29;20448;-70
2023/08/29 04:28:25;;;;;;;2.77;1.57;;;;;;;;;;4903761;29;20508;-70
2023/08/29 04:30:52;;;;;;;3.43;1.80;;;;;;;;;;4916415;29;20484;-70
2023/08/29 04:33:19;;;;;;;3.10;1.93;;;;;;;;;;4916635;29;20456;-71
2023/08/29 04:35:50;;;;;;;3.73;2.03;;;;;;;;;;4916282;29;20452;-71
2023/08/29 04:38:17;;;;;;;2.67;1.60;;;;;;;;;;4915128;29;20499;-71
2023/08/29 04:40:44;;;;;;;4.07;2.40;;;;;;;;;;4915910;29;20912;-71
2023/08/29 04:43:11;;;;;;;3.23;2.10;;;;;;;;;;4915765;29;20457;-72
2023/08/29 04:45:38;;;;;;;3.03;1.80;;;;;;;;;;4916086;29;20448;-72
2023/08/29 04:48:07;;;;;;;3.70;2.23;;;;;;;;;;4916327;29;20460;-72
2023/08/29 04:50:35;;;;;;;3.40;2.30;;;;;;;;;;4916263;29;20593;-71
2023/08/29 04:53:03;;;;;;;5.20;3.33;;;;;;;;;;4913882;29;20455;-72
2023/08/29 04:55:31;;;;;;;3.83;2.30;;;;;;;;;;4911449;29;20850;-71
2023/08/29 04:57:58;;;;;;;3.63;2.20;;;;;;;;;;4915118;29;20508;-71
2023/08/29 05:00:26;;;;;;;3.40;2.43;;;;;;;;;;4915884;29;20464;-71
2023/08/29 05:02:53;;;;;;;3.87;3.03;;;;;;;;;;4915720;29;20444;-71
2023/08/29 05:05:20;;;;;;;4.17;2.33;;;;;;;;;;4915326;29;20832;-69
2023/08/29 05:07:47;;;;;;;4.97;3.00;;;;;;;;;;4916480;29;20456;-70
2023/08/29 05:10:15;;;;;;;3.70;2.23;;;;;;;;;;4915655;29;20471;-70
2023/08/29 05:12:42;;;;;;;3.33;2.00;;;;;;;;;;4915220;29;20460;-70
2023/08/29 05:15:10;;;;;;;3.20;2.20;;;;;;;;;;4915120;29;20448;-70
2023/08/29 05:17:37;;;;;;;3.40;2.57;;;;;;;;;;4915619;29;20460;-72
2023/08/29 05:20:09;;;;;;;3.53;2.50;;;;;;;;;;4915042;29;20460;-71
2023/08/29 05:22:36;;;;;;;4.57;2.97;;;;;;;;;;4915747;29;20486;-71
2023/08/29 05:25:04;;;;;;;4.70;2.37;;;;;;;;;;4915681;29;20819;-71
2023/08/29 05:27:32;;;;;;;3.60;2.90;;;;;;;;;;4915129;29;21047;-72
2023/08/29 05:29:59;;;;;;;3.40;2.50;;;;;;;;;;4915336;29;20479;-72
2023/08/29 05:32:28;;;;;;;4.57;2.70;;;;;;;;;;4913075;29;20503;-71
2023/08/29 05:34:56;;;;;;;4.47;3.60;;;;;;;;;;4915201;29;20445;-71
2023/08/29 05:37:23;;;;;;;3.27;1.83;;;;;;;;;;4915058;29;20499;-71
2023/08/29 05:39:50;;;;;;;6.23;3.67;;;;;;;;;;4914824;29;20825;-70
2023/08/29 05:42:17;;;;;;;4.10;2.47;;;;;;;;;;4915116;29;21057;-69
2023/08/29 05:44:45;;;;;;;3.70;2.37;;;;;;;;;;4915435;29;20441;-69
2023/08/29 05:47:12;;;;;;;3.90;2.83;;;;;;;;;;4915458;29;20452;-69
2023/08/29 05:49:39;;;;;;;4.27;3.03;;;;;;;;;;4914929;29;20487;-69
2023/08/29 05:52:06;;;;;;;3.53;2.77;;;;;;;;;;4913084;29;20827;-69
2023/08/29 05:54:36;;;;;;;3.13;2.60;;;;;;;;;;4901741;29;20826;-69
2023/08/29 05:57:03;;;;;;;3.40;2.30;;;;;;;;;;4913587;29;20452;-69
2023/08/29 05:59:31;;;;;;;4.13;3.03;;;;;;;;;;4914457;29;20472;-68
2023/08/29 06:01:59;;;;;;;4.33;2.50;;;;;;;;;;4915110;29;20456;-68
2023/08/29 06:04:26;;;;;;;3.33;2.33;;;;;;;;;;4914983;29;20555;-68
2023/08/29 06:06:54;;;;;;;5.47;3.30;;;;;;;;;;4912009;29;20872;-68
2023/08/29 06:09:21;;;;;;;4.80;2.70;;;;;;;;;;4912587;29;20480;-68
2023/08/29 06:11:48;;;;;;;8.20;2.77;;;;;;;;;;4914375;29;20815;-68
2023/08/29 06:14:17;;;;;;;3.83;2.80;;;;;;;;;;4914165;29;20832;-68
2023/08/29 06:16:44;;;;;;;4.20;3.27;;;;;;;;;;4914322;29;20456;-69
2023/08/29 06:19:12;;;;;;;3.87;2.80;;;;;;;;;;4914876;29;20472;-69
2023/08/29 06:21:40;;;;;;;3.93;3.03;;;;;;;;;;4914629;29;20444;-68
2023/08/29 06:24:07;;;;;;;4.13;3.00;;;;;;;;;;4914580;29;20504;-67
2023/08/29 06:26:35;;;;;;;3.17;2.70;;;;;;;;;;4915111;29;20512;-68
2023/08/29 06:29:02;;;;;;;5.00;3.40;;;;;;;;;;4913707;29;20980;-67
2023/08/29 06:31:29;;;;;;;5.07;4.03;;;;;;;;;;4912889;29;21026;-69
2023/08/29 06:33:56;;;;;;;3.60;2.80;;;;;;;;;;4914565;29;20452;-68
2023/08/29 06:36:24;;;;;;;4.50;2.97;;;;;;;;;;4914827;29;20475;-68
2023/08/29 06:38:52;;;;;;;4.07;2.90;;;;;;;;;;4914370;29;20484;-68
2023/08/29 06:41:19;;;;;;;5.70;3.50;;;;;;;;;;4914638;29;20961;-68
2023/08/29 06:43:47;;;;;;;2.83;2.27;;;;;;;;;;4914727;29;20444;-69
2023/08/29 06:46:14;;;;;;;5.80;3.50;;;;;;;;;;4914693;29;20459;-67
2023/08/29 06:48:41;;;;;;;4.53;3.17;;;;;;;;;;4913173;29;20472;-69
2023/08/29 06:51:10;;;;;;;4.00;3.10;;;;;;;;;;4913936;29;20527;-69
2023/08/29 06:53:39;;;;;;;6.83;3.67;;;;;;;;;;4914533;29;20448;-70
2023/08/29 06:56:06;;;;;;;4.77;3.50;;;;;;;;;;4914349;29;20440;-70
2023/08/29 06:58:33;;;;;;;3.60;2.73;;;;;;;;;;4914586;29;20864;-67
2023/08/29 07:01:00;;;;;;;6.30;3.27;;;;;;;;;;4914565;29;20437;-68
2023/08/29 07:03:27;;;;;;;4.17;3.17;;;;;;;;;;4916341;29;20444;-68
2023/08/29 07:05:55;;;;;;;4.47;2.87;;;;;;;;;;4918201;29;20804;-68
2023/08/29 07:08:22;;;;;;;4.20;3.23;;;;;;;;;;4917902;29;20480;-68
2023/08/29 07:10:51;;;;;;;5.77;3.70;;;;;;;;;;4913153;29;20442;-68
2023/08/29 07:13:18;;;;;;;3.53;2.50;;;;;;;;;;4911634;29;20829;-67
2023/08/29 07:15:45;;;;;;;5.10;3.37;;;;;;;;;;4911714;29;20444;-69
2023/08/29 07:18:13;;;;;;;4.97;3.30;;;;;;;;;;4918123;29;20459;-68
2023/08/29 07:20:40;;;;;;;4.83;3.20;;;;;;;;;;4917816;29;20453;-68
2023/08/29 07:23:07;;;;;;;4.17;3.60;;;;;;;;;;4918707;29;20815;-70
2023/08/29 07:25:39;;;;;;;3.83;2.57;;;;;;;;;;4918516;29;20451;-69
2023/08/29 07:28:08;;;;;;;4.50;3.30;;;;;;;;;;4914969;29;20528;-70
2023/08/29 07:30:36;;;;;;;3.33;2.40;;;;;;;;;;4918596;29;20468;-69
2023/08/29 07:33:03;;;;;;;3.83;3.00;;;;;;;;;;4917350;29;20869;-70
2023/08/29 07:35:33;;;;;;;4.70;3.30;;;;;;;;;;4919109;29;20444;-71
2023/08/29 07:38:00;;;;;;;5.70;3.27;;;;;;;;;;4939488;29;20436;-68
2023/08/29 07:40:27;;;;;;;5.20;3.83;;;;;;;;;;4940541;29;20460;-71
2023/08/29 07:42:54;;;;;;;4.03;2.53;;;;;;;;;;4940269;29;20472;-69
2023/08/29 07:45:23;;;;;;;7.07;3.53;;;;;;;;;;4930899;29;20919;-70
2023/08/29 07:47:50;;;;;;;4.37;2.57;;;;;;;;;;4917255;29;20477;-72
2023/08/29 07:50:17;;;;;;;4.93;3.10;;;;;;;;;;4915356;29;20483;-71
2023/08/29 07:52:44;;;;;;;4.00;3.20;;;;;;;;;;4913645;29;20488;-71
2023/08/29 07:55:11;;;;;;;6.70;3.43;;;;;;;;;;4915918;29;20462;-70
2023/08/29 07:57:38;;;;;;;3.70;2.40;;;;;;;;;;4910284;29;20456;-72
2023/08/29 08:00:09;;;;;;;4.60;2.70;;;;;;;;;;4916296;29;20473;-71
2023/08/29 08:02:39;;;;;;;3.83;2.60;;;;;;;;;;4910757;29;20549;-71
2023/08/29 08:05:07;;;;;;;4.07;3.37;;;;;;;;;;4913771;29;20499;-71
2023/08/29 08:07:34;;;;;;;3.00;2.30;;;;;;;;;;4905676;29;20451;-71
2023/08/29 08:10:04;;;;;;;4.63;3.30;;;;;;;;;;4916732;29;20528;-71
2023/08/29 08:12:31;;;;;;;4.10;2.90;;;;;;;;;;4916747;29;20802;-70
2023/08/29 08:14:58;;;;;;;4.73;2.63;;;;;;;;;;4915737;29;20445;-70
2023/08/29 08:17:25;;;;;;;4.17;3.00;;;;;;;;;;4916953;29;20575;-69
2023/08/29 08:19:53;;;;;;;3.80;2.60;;;;;;;;;;4916344;29;20927;-69
2023/08/29 08:22:20;;;;;;;4.47;3.20;;;;;;;;;;4916937;29;20451;-69
2023/08/29 08:24:48;;;;;;;4.00;2.90;;;;;;;;;;4916893;29;20448;-69
2023/08/29 08:27:17;;;;;;;3.50;2.30;;;;;;;;;;4916529;29;20445;-69
2023/08/29 08:29:44;;;;;;;5.23;3.40;;;;;;;;;;4916599;29;20467;-69
2023/08/29 08:32:11;;;;;;;3.40;2.80;;;;;;;;;;4916544;29;21010;-70
2023/08/29 08:34:39;;;;;;;3.67;2.77;;;;;;;;;;4917249;29;20543;-70
2023/08/29 08:37:08;;;;;;;5.70;4.00;;;;;;;;;;4915906;29;20448;-70
2023/08/29 08:39:35;;;;;;;4.90;3.30;;;;;;;;;;4916557;29;20844;-69
2023/08/29 08:42:03;;;;;;;6.70;3.00;;;;;;;;;;4916951;29;20448;-69
2023/08/29 08:44:32;;;;;;;4.30;2.83;;;;;;;;;;4916396;29;20955;-69
2023/08/29 08:46:59;;;;;;;3.53;2.63;;;;;;;;;;4916102;29;20488;-69
2023/08/29 08:49:26;;;;;;;3.70;3.30;;;;;;;;;;4916409;29;20505;-69
2023/08/29 08:51:54;;;;;;;4.07;3.20;;;;;;;;;;4916587;29;20520;-69
2023/08/29 08:54:22;;;;;;;6.13;3.93;;;;;;;;;;4916588;29;20451;-69
2023/08/29 08:56:50;;;;;;;5.47;4.07;;;;;;;;;;4915635;29;20449;-71
2023/08/29 08:59:17;;;;;;;5.10;4.10;;;;;;;;;;4916565;29;20480;-69
2023/08/29 09:01:44;;;;;;;4.63;3.90;;;;;;;;;;4916163;29;20448;-70
2023/08/29 09:04:11;;;;;;;5.63;4.00;;;;;;;;;;4914657;29;20458;-68
2023/08/29 09:06:38;;;;;;;9.60;4.30;;;;;;;;;;4915647;29;20463;-68
2023/08/29 09:09:19;;;;;;;4.43;3.90;;;;;;;;;;4916292;29;20515;-70
2023/08/29 09:11:53;;;;;;;5.13;4.20;;;;;;;;;;4916168;29;20487;-68
2023/08/29 09:14:20;;;;;;;4.13;3.67;;;;;;;;;;4915083;29;20575;-68
2023/08/29 09:16:47;;;;;;;4.47;3.50;;;;;;;;;;4915749;29;20460;-69
2023/08/29 09:19:15;;;;;;;6.10;3.67;;;;;;;;;;4914193;29;20465;-69
2023/08/29 09:21:43;;;;;;;5.30;3.47;;;;;;;;;;4906635;29;20453;-69
2023/08/29 09:24:12;;;;;;;4.73;3.57;;;;;;;;;;4915569;29;20456;-69
2023/08/29 09:26:40;;;;;;;4.57;3.37;;;;;;;;;;4914958;29;20452;-68
2023/08/29 09:29:18;;;;;;;3.60;2.80;;;;;;;;;;4915809;29;20472;-69
2023/08/29 09:31:46;;;;;;;4.20;3.40;;;;;;;;;;4915456;29;20579;-69
2023/08/29 09:34:23;;;;;;;6.03;3.70;;;;;;;;;;4915577;29;20844;-68
2023/08/29 09:36:50;;;;;;;4.20;3.03;;;;;;;;;;4918571;29;20459;-69
2023/08/29 09:39:17;;;;;;;4.07;2.90;;;;;;;;;;4914959;29;20473;-70
2023/08/29 09:41:45;;;;;;;4.20;3.43;;;;;;;;;;4915212;29;20448;-70
2023/08/29 09:44:12;;;;;;;4.07;3.53;;;;;;;;;;4913458;29;20445;-69
2023/08/29 09:46:44;;;;;;;5.60;3.50;;;;;;;;;;4915841;29;20463;-70
2023/08/29 09:49:12;;;;;;;5.67;4.27;;;;;;;;;;4903171;29;20479;-71
2023/08/29 09:51:39;;;;;;;4.70;3.63;;;;;;;;;;4915562;29;20440;-71
2023/08/29 09:54:11;;;;;;;8.77;3.53;;;;;;;;;;4915537;29;20508;-69
2023/08/29 09:56:39;;;;;;;5.63;4.20;;;;;;;;;;4915336;29;20449;-70
2023/08/29 09:59:11;;;;;;;4.40;2.90;;;;;;;;;;4915220;29;20619;-70
2023/08/29 10:01:40;;;;;;;4.63;3.10;;;;;;;;;;4915609;29;20464;-69
2023/08/29 10:04:09;;;;;;;5.67;3.53;;;;;;;;;;4915540;29;20861;-69
2023/08/29 10:06:38;;;;;;;4.37;3.50;;;;;;;;;;4915065;29;20457;-69
2023/08/29 10:09:06;;;;;;;6.37;3.70;;;;;;;;;;4915495;29;20609;-72
2023/08/29 10:11:34;;;;;;;6.20;4.20;;;;;;;;;;4915297;29;20448;-69
2023/08/29 10:14:04;;;;;;;5.23;3.63;;;;;;;;;;4914459;29;20491;-69
2023/08/29 10:16:32;;;;;;;3.70;3.30;;;;;;;;;;4913447;29;21026;-70
2023/08/29 10:19:01;;;;;;;5.27;3.80;;;;;;;;;;4913640;29;20853;-70
2023/08/29 10:21:28;;;;;;;4.60;4.07;;;;;;;;;;4914415;29;20480;-70
2023/08/29 10:23:56;;;;;;;5.37;3.90;;;;;;;;;;4914337;29;20491;-70
2023/08/29 10:26:23;;;;;;;4.77;4.00;;;;;;;;;;4915095;29;20444;-71
2023/08/29 10:28:50;;;;;;;5.00;3.37;;;;;;;;;;4914579;29;20487;-70
2023/08/29 10:31:19;;;;;;;5.17;4.13;;;;;;;;;;4914288;29;20444;-70
2023/08/29 10:33:48;;;;;;;5.70;3.70;;;;;;;;;;4914840;29;20484;-69
2023/08/29 10:36:18;;;;;;;5.03;4.03;;;;;;;;;;4914617;29;20452;-70
2023/08/29 10:38:48;;;;;;;5.13;3.70;;;;;;;;;;4917734;29;20570;-70
2023/08/29 10:41:18;;;;;;;5.50;3.30;;;;;;;;;;4917754;29;20955;-70
2023/08/29 10:43:45;;;;;;;4.33;2.93;;;;;;;;;;4918955;29;20862;-70
2023/08/29 10:46:15;;;;;;;3.67;2.70;;;;;;;;;;4918838;29;20448;-70
2023/08/29 10:48:54;;;;;;;5.50;3.37;;;;;;;;;;4906335;29;20463;-70
2023/08/29 10:51:24;;;;;;;3.87;3.47;;;;;;;;;;4919205;29;20448;-70
2023/08/29 10:53:52;;;;;;;4.60;3.43;;;;;;;;;;4917938;29;20484;-70
2023/08/29 10:56:20;;;;;;;4.57;3.77;;;;;;;;;;4918590;29;20540;-69
2023/08/29 10:58:48;;;;;;;4.80;3.10;;;;;;;;;;4918784;29;20488;-69
2023/08/29 11:01:33;;;;;;;4.77;3.57;;;;;;;;;;4916654;29;20508;-71
2023/08/29 11:04:03;;;;;;;8.57;3.87;;;;;;;;;;4919959;29;20456;-69
2023/08/29 11:06:52;;;;;;;5.90;3.67;;;;;;;;;;4918426;29;20546;-70
2023/08/29 11:09:20;;;;;;;3.53;2.90;;;;;;;;;;4917907;29;20483;-69
2023/08/29 11:12:03;;;;;;;5.77;3.67;;;;;;;;;;4918418;29;20484;-70
2023/08/29 11:14:50;;;;;;;4.30;3.90;;;;;;;;;;4918586;29;20483;-71
2023/08/29 11:17:22;;;;;;;5.20;4.00;;;;;;;;;;4918936;29;20493;-69
2023/08/29 11:19:51;;;;;;;6.60;4.97;;;;;;;;;;4920248;29;20999;-69
2023/08/29 11:22:21;;;;;;;6.00;4.77;;;;;;;;;;4918624;29;20452;-69
2023/08/29 11:24:51;;;;;;;5.80;3.80;;;;;;;;;;4919266;29;20473;-69
2023/08/29 11:27:18;;;;;;;5.97;3.83;;;;;;;;;;4917508;29;20484;-70
2023/08/29 11:29:46;;;;;;;5.97;4.83;;;;;;;;;;4917518;29;20475;-69
2023/08/29 11:32:13;;;;;;;5.90;4.73;;;;;;;;;;4917506;29;20455;-70
2023/08/29 11:34:40;;;;;;;5.63;4.00;;;;;;;;;;4903300;29;20925;-71
2023/08/29 11:37:10;;;;;;;5.43;4.27;;;;;;;;;;4915878;29;20496;-70
2023/08/29 11:39:39;;;;;;;5.00;4.30;;;;;;;;;;4917131;29;20460;-70
2023/08/29 11:42:07;;;;;;;5.43;4.00;;;;;;;;;;4917670;29;20830;-70
2023/08/29 11:44:35;;;;;;;4.97;3.70;;;;;;;;;;4917783;29;20840;-71
2023/08/29 11:47:02;;;;;;;4.83;3.73;;;;;;;;;;4900338;29;20867;-69
2023/08/29 11:49:29;;;;;;;5.53;4.40;;;;;;;;;;4916153;29;20500;-69
2023/08/29 11:51:56;;;;;;;4.80;3.87;;;;;;;;;;4917709;29;20453;-69
2023/08/29 11:54:41;;;;;;;5.20;4.37;;;;;;;;;;4917660;29;20948;-70
2023/08/29 11:57:10;;;;;;;3.93;3.50;;;;;;;;;;4917038;29;20452;-70
2023/08/29 11:59:40;;;;;;;8.23;5.37;;;;;;;;;;4917793;29;20487;-70
2023/08/29 12:02:08;;;;;;;4.70;3.67;;;;;;;;;;4917636;29;20834;-70
2023/08/29 12:04:39;;;;;;;5.47;3.70;;;;;;;;;;4917305;29;20480;-70
2023/08/29 12:07:09;;;;;;;4.47;3.67;;;;;;;;;;4916856;29;20452;-70
2023/08/29 12:09:37;;;;;;;5.43;4.43;;;;;;;;;;4917383;29;21072;-70
2023/08/29 12:12:07;;;;;;;4.70;4.13;;;;;;;;;;4916184;29;20476;-70
2023/08/29 12:14:49;;;;;;;6.67;4.47;;;;;;;;;;4917006;29;20496;-70
2023/08/29 12:17:17;;;;;;;4.77;4.23;;;;;;;;;;4917351;29;20460;-70
2023/08/29 12:19:44;;;;;;;6.43;4.87;;;;;;;;;;4917071;29;20984;-70
2023/08/29 12:22:11;;;;;;;7.33;5.10;;;;;;;;;;4917179;29;20518;-72
2023/08/29 12:24:39;;;;;;;5.87;4.60;;;;;;;;;;4916873;29;20556;-70
2023/08/29 12:27:09;;;;;;;5.17;4.23;;;;;;;;;;4921822;29;20551;-70
2023/08/29 12:29:36;;;;;;;5.70;4.43;;;;;;;;;;4917027;29;20477;-70
2023/08/29 12:32:03;;;;;;;4.93;4.30;;;;;;;;;;4917010;29;20444;-70
2023/08/29 12:34:31;;;;;;;6.10;4.87;;;;;;;;;;4916456;29;20492;-70
2023/08/29 12:36:58;;;;;;;6.10;4.20;;;;;;;;;;4917055;29;20456;-70
2023/08/29 12:39:25;;;;;;;5.60;4.47;;;;;;;;;;4916752;29;20467;-69
2023/08/29 12:41:53;;;;;;;6.03;4.80;;;;;;;;;;4915738;29;20444;-70
2023/08/29 12:44:22;;;;;;;6.37;4.70;;;;;;;;;;4916496;29;20547;-71
2023/08/29 12:46:49;;;;;;;6.20;5.20;;;;;;;;;;4916258;29;20468;-70
2023/08/29 12:49:16;;;;;;;8.73;5.83;;;;;;;;;;4916415;29;20481;-69
2023/08/29 12:51:43;;;;;;;7.23;5.27;;;;;;;;;;4916065;29;20449;-71
2023/08/29 12:54:11;;;;;;;7.30;6.20;;;;;;;;;;4914604;29;20567;-69
2023/08/29 12:56:38;;;;;;;6.20;5.50;;;;;;;;;;4916157;29;20460;-70
2023/08/29 12:59:05;;;;;;;6.30;4.60;;;;;;;;;;4916411;29;20479;-69
2023/08/29 13:01:33;;;;;;;8.07;5.23;;;;;;;;;;4915052;29;20460;-69
2023/08/29 13:04:01;;;;;;;7.37;4.73;;;;;;;;;;4916011;29;20440;-70
2023/08/29 13:06:28;;;;;;;6.33;4.77;;;;;;;;;;4915082;29;20452;-70
2023/08/29 13:08:56;;;;;;;5.90;5.10;;;;;;;;;;4915384;29;20496;-70
2023/08/29 13:11:23;;;;;;;4.70;4.20;;;;;;;;;;4916279;29;20775;-71
2023/08/29 13:13:50;;;;;;;4.70;4.07;;;;;;;;;;4915589;29;20484;-70
2023/08/29 13:16:18;;;;;;;6.40;4.73;;;;;;;;;;4915234;29;20979;-70
2023/08/29 13:18:47;;;;;;;4.17;3.40;;;;;;;;;;4915415;29;20499;-70
2023/08/29 13:21:14;;;;;;;4.10;3.40;;;;;;;;;;4916040;29;20889;-69
2023/08/29 13:23:41;;;;;;;5.47;3.90;;;;;;;;;;4915557;29;20455;-69
2023/08/29 13:26:08;;;;;;;4.70;3.10;;;;;;;;;;4915483;29;20444;-70
2023/08/29 13:28:35;;;;;;;4.40;3.40;;;;;;;;;;4915171;29;20488;-69
2023/08/29 13:31:04;;;;;;;3.90;3.50;;;;;;;;;;4915445;29;20449;-70
2023/08/29 13:33:32;;;;;;;4.53;3.43;;;;;;;;;;4914445;29;20507;-70
2023/08/29 13:36:00;;;;;;;7.00;5.00;;;;;;;;;;4915039;29;20473;-70
2023/08/29 13:38:27;;;;;;;4.53;3.73;;;;;;;;;;4913460;29;20452;-70
2023/08/29 13:40:54;;;;;;;5.07;3.90;;;;;;;;;;4915589;29;20467;-71
2023/08/29 13:43:21;;;;;;;4.70;3.57;;;;;;;;;;4915528;29;20815;-70
2023/08/29 13:45:48;;;;;;;3.57;2.90;;;;;;;;;;4914818;29;20974;-71
2023/08/29 13:48:16;;;;;;;5.73;3.97;;;;;;;;;;4913752;29;20984;-71
2023/08/29 13:50:43;;;;;;;3.47;3.17;;;;;;;;;;4914144;29;20449;-70
2023/08/29 13:53:13;;;;;;;4.13;2.83;;;;;;;;;;4914439;29;20487;-71
2023/08/29 13:55:40;;;;;;;4.00;2.70;;;;;;;;;;4915116;29;20901;-71
2023/08/29 13:58:07;;;;;;;3.50;3.13;;;;;;;;;;4914697;29;20868;-69
2023/08/29 14:00:34;;;;;;;3.70;3.33;;;;;;;;;;4915051;29;21038;-69
2023/08/29 14:03:01;;;;;;;4.73;3.40;;;;;;;;;;4915362;29;20445;-70
2023/08/29 14:05:29;;;;;;;4.20;3.63;;;;;;;;;;4914562;29;20463;-70
2023/08/29 14:07:56;;;;;;;6.20;3.37;;;;;;;;;;4914341;29;20459;-70
2023/08/29 14:10:24;;;;;;;4.03;3.63;;;;;;;;;;4914586;29;20472;-70
2023/08/29 14:12:52;;;;;;;4.53;3.60;;;;;;;;;;4914311;29;20444;-70
2023/08/29 14:15:19;;;;;;;5.13;4.10;;;;;;;;;;4915038;29;20480;-70
2023/08/29 14:17:46;;;;;;;5.60;4.20;;;;;;;;;;4914743;29;20464;-70
2023/08/29 14:20:13;;;;;;;5.47;4.27;;;;;;;;;;4914440;29;20491;-71
2023/08/29 14:22:42;;;;;;;5.07;3.97;;;;;;;;;;4914119;29;20475;-71
2023/08/29 14:25:09;;;;;;;4.60;3.57;;;;;;;;;;4914206;29;20511;-67
2023/08/29 14:27:38;;;;;;;4.80;3.83;;;;;;;;;;4914169;29;20809;-67
2023/08/29 14:30:05;;;;;;;5.27;3.97;;;;;;;;;;4914469;29;20472;-66
2023/08/29 14:32:32;;;;;;;5.00;3.90;;;;;;;;;;4915006;29;20441;-67
2023/08/29 14:34:59;;;;;;;4.70;3.80;;;;;;;;;;4914555;29;20488;-67
2023/08/29 14:37:26;;;;;;;4.23;3.30;;;;;;;;;;4914708;29;20451;-66
2023/08/29 14:39:53;;;;;;;4.00;3.50;;;;;;;;;;4914048;29;20464;-68
2023/08/29 14:42:20;;;;;;;4.23;3.17;;;;;;;;;;4914015;29;20445;-66
2023/08/29 14:44:49;;;;;;;3.30;2.37;;;;;;;;;;4914748;29;20437;-66
2023/08/29 14:47:17;;;;;;;3.33;2.10;;;;;;;;;;4913596;29;20857;-66
2023/08/29 14:49:44;;;;;;;4.90;2.57;;;;;;;;;;4914551;29;20464;-67